sensor_id;sensor_type;location;lat;lon;timestamp;P1;durP1;ratioP1;P2;durP2;ratioP2
19151;SDS011;9708;53.114;9.388;2023-06-22T00:00:10;2.17;;;1.98;;
19151;SDS011;9708;53.114;9.388;2023-06-22T00:02:37;3.53;;;2.30;;
19151;SDS011;9708;53.114;9.388;2023-06-22T00:05:04;3.78;;;2.67;;
19151;SDS011;9708;53.114;9.388;2023-06-22T00:07:31;2.45;;;2.22;;
19151;SDS011;9708;53.114;9.388;2023-06-22T00:09:59;2.92;;;2.42;;
19151;SDS011;9708;53.114;9.388;2023-06-22T00:12:26;2.47;;;2.28;;
19151;SDS011;9708;53.114;9.388;2023-06-22T00:14:53;4.50;;;2.63;;
19151;SDS011;9708;53.114;9.388;2023-06-22T00:17:19;3.08;;;2.35;;
19151;SDS011;9708;53.114;9.388;2023-06-22T00:19:46;2.80;;;2.50;;
19151;SDS011;9708;53.114;9.388;2023-06-22T00:22:18;2.42;;;2.00;;
19151;SDS011;9708;53.114;9.388;2023-06-22T00:24:46;3.83;;;2.67;;
19151;SDS011;9708;53.114;9.388;2023-06-22T00:27:14;4.15;;;2.65;;
19151;SDS011;9708;53.114;9.388;2023-06-22T00:29:41;3.10;;;2.17;;
19151;SDS011;9708;53.114;9.388;2023-06-22T00:32:08;3.00;;;2.17;;
19151;SDS011;9708;53.114;9.388;2023-06-22T00:34:34;2.80;;;2.17;;
19151;SDS011;9708;53.114;9.388;2023-06-22T00:37:01;3.15;;;2.40;;
19151;SDS011;9708;53.114;9.388;2023-06-22T00:39:28;7.88;;;2.35;;
19151;SDS011;9708;53.114;9.388;2023-06-22T00:41:56;10.73;;;3.03;;
19151;SDS011;9708;53.114;9.388;2023-06-22T00:44:24;3.10;;;2.80;;
19151;SDS011;9708;53.114;9.388;2023-06-22T00:46:51;5.88;;;2.78;;
19151;SDS011;9708;53.114;9.388;2023-06-22T00:49:18;3.33;;;2.40;;
19151;SDS011;9708;53.114;9.388;2023-06-22T00:51:45;3.97;;;2.83;;
19151;SDS011;9708;53.114;9.388;2023-06-22T00:54:12;2.90;;;2.50;;
19151;SDS011;9708;53.114;9.388;2023-06-22T00:56:39;2.95;;;2.45;;
19151;SDS011;9708;53.114;9.388;2023-06-22T00:59:07;2.97;;;2.20;;
19151;SDS011;9708;53.114;9.388;2023-06-22T01:01:38;3.53;;;2.58;;
19151;SDS011;9708;53.114;9.388;2023-06-22T01:04:06;2.95;;;2.00;;
19151;SDS011;9708;53.114;9.388;2023-06-22T01:06:34;3.63;;;2.38;;
19151;SDS011;9708;53.114;9.388;2023-06-22T01:09:06;2.95;;;2.60;;
19151;SDS011;9708;53.114;9.388;2023-06-22T01:11:41;3.90;;;2.65;;
19151;SDS011;9708;53.114;9.388;2023-06-22T01:14:12;3.00;;;2.10;;
19151;SDS011;9708;53.114;9.388;2023-06-22T01:16:45;2.97;;;2.58;;
19151;SDS011;9708;53.114;9.388;2023-06-22T01:19:20;5.55;;;3.00;;
19151;SDS011;9708;53.114;9.388;2023-06-22T01:22:00;3.88;;;2.65;;
19151;SDS011;9708;53.114;9.388;2023-06-22T01:24:30;2.95;;;2.33;;
19151;SDS011;9708;53.114;9.388;2023-06-22T01:27:09;7.13;;;2.60;;
19151;SDS011;9708;53.114;9.388;2023-06-22T01:29:48;4.72;;;2.35;;
19151;SDS011;9708;53.114;9.388;2023-06-22T01:32:16;3.80;;;2.63;;
19151;SDS011;9708;53.114;9.388;2023-06-22T01:34:43;5.20;;;3.03;;
19151;SDS011;9708;53.114;9.388;2023-06-22T01:37:12;5.53;;;3.17;;
19151;SDS011;9708;53.114;9.388;2023-06-22T01:39:39;3.70;;;2.58;;
19151;SDS011;9708;53.114;9.388;2023-06-22T01:42:07;3.35;;;2.40;;
19151;SDS011;9708;53.114;9.388;2023-06-22T01:44:33;4.45;;;2.97;;
19151;SDS011;9708;53.114;9.388;2023-06-22T01:47:02;3.03;;;2.65;;
19151;SDS011;9708;53.114;9.388;2023-06-22T01:49:29;5.82;;;2.92;;
19151;SDS011;9708;53.114;9.388;2023-06-22T01:51:56;2.60;;;2.40;;
19151;SDS011;9708;53.114;9.388;2023-06-22T01:54:23;4.45;;;2.95;;
19151;SDS011;9708;53.114;9.388;2023-06-22T01:56:50;6.10;;;2.70;;
19151;SDS011;9708;53.114;9.388;2023-06-22T01:59:19;4.53;;;3.08;;
19151;SDS011;9708;53.114;9.388;2023-06-22T02:01:52;4.55;;;3.28;;
19151;SDS011;9708;53.114;9.388;2023-06-22T02:04:27;3.40;;;3.10;;
19151;SDS011;9708;53.114;9.388;2023-06-22T02:06:59;7.75;;;3.05;;
19151;SDS011;9708;53.114;9.388;2023-06-22T02:09:27;3.97;;;3.05;;
19151;SDS011;9708;53.114;9.388;2023-06-22T02:11:56;3.78;;;3.17;;
19151;SDS011;9708;53.114;9.388;2023-06-22T02:14:24;6.10;;;3.38;;
19151;SDS011;9708;53.114;9.388;2023-06-22T02:16:51;4.50;;;3.33;;
19151;SDS011;9708;53.114;9.388;2023-06-22T02:19:22;4.72;;;3.08;;
19151;SDS011;9708;53.114;9.388;2023-06-22T02:21:51;6.72;;;3.55;;
19151;SDS011;9708;53.114;9.388;2023-06-22T02:24:17;5.68;;;3.13;;
19151;SDS011;9708;53.114;9.388;2023-06-22T02:26:44;6.10;;;3.45;;
19151;SDS011;9708;53.114;9.388;2023-06-22T02:29:11;3.75;;;2.88;;
19151;SDS011;9708;53.114;9.388;2023-06-22T02:31:38;5.53;;;3.33;;
19151;SDS011;9708;53.114;9.388;2023-06-22T02:34:04;4.10;;;3.20;;
19151;SDS011;9708;53.114;9.388;2023-06-22T02:36:31;3.95;;;3.03;;
19151;SDS011;9708;53.114;9.388;2023-06-22T02:39:00;5.22;;;3.67;;
19151;SDS011;9708;53.114;9.388;2023-06-22T02:41:28;5.63;;;4.07;;
19151;SDS011;9708;53.114;9.388;2023-06-22T02:43:55;5.25;;;3.65;;
19151;SDS011;9708;53.114;9.388;2023-06-22T02:46:22;4.85;;;3.45;;
19151;SDS011;9708;53.114;9.388;2023-06-22T02:48:49;4.60;;;3.22;;
19151;SDS011;9708;53.114;9.388;2023-06-22T02:51:15;4.95;;;3.55;;
19151;SDS011;9708;53.114;9.388;2023-06-22T02:53:42;5.88;;;3.70;;
19151;SDS011;9708;53.114;9.388;2023-06-22T02:56:11;6.97;;;4.15;;
19151;SDS011;9708;53.114;9.388;2023-06-22T02:58:37;4.63;;;3.53;;
19151;SDS011;9708;53.114;9.388;2023-06-22T03:01:04;5.95;;;4.03;;
19151;SDS011;9708;53.114;9.388;2023-06-22T03:03:31;6.78;;;4.00;;
19151;SDS011;9708;53.114;9.388;2023-06-22T03:05:58;5.93;;;4.25;;
19151;SDS011;9708;53.114;9.388;2023-06-22T03:08:26;7.05;;;4.05;;
19151;SDS011;9708;53.114;9.388;2023-06-22T03:10:53;8.05;;;4.32;;
19151;SDS011;9708;53.114;9.388;2023-06-22T03:13:21;4.50;;;3.78;;
19151;SDS011;9708;53.114;9.388;2023-06-22T03:15:49;6.68;;;4.45;;
19151;SDS011;9708;53.114;9.388;2023-06-22T03:18:15;6.00;;;3.72;;
19151;SDS011;9708;53.114;9.388;2023-06-22T03:20:42;6.65;;;4.25;;
19151;SDS011;9708;53.114;9.388;2023-06-22T03:23:09;6.00;;;4.22;;
19151;SDS011;9708;53.114;9.388;2023-06-22T03:25:36;6.22;;;4.30;;
19151;SDS011;9708;53.114;9.388;2023-06-22T03:28:02;6.72;;;4.70;;
19151;SDS011;9708;53.114;9.388;2023-06-22T03:30:31;7.47;;;4.50;;
19151;SDS011;9708;53.114;9.388;2023-06-22T03:32:57;7.63;;;4.40;;
19151;SDS011;9708;53.114;9.388;2023-06-22T03:35:24;5.78;;;5.03;;
19151;SDS011;9708;53.114;9.388;2023-06-22T03:37:51;7.15;;;4.68;;
19151;SDS011;9708;53.114;9.388;2023-06-22T03:40:18;7.88;;;4.93;;
19151;SDS011;9708;53.114;9.388;2023-06-22T03:42:45;8.27;;;4.40;;
19151;SDS011;9708;53.114;9.388;2023-06-22T03:45:12;7.30;;;5.47;;
19151;SDS011;9708;53.114;9.388;2023-06-22T03:47:40;8.07;;;4.78;;
19151;SDS011;9708;53.114;9.388;2023-06-22T03:50:07;8.48;;;4.15;;
19151;SDS011;9708;53.114;9.388;2023-06-22T03:52:34;6.47;;;4.30;;
19151;SDS011;9708;53.114;9.388;2023-06-22T03:55:01;6.65;;;4.15;;
19151;SDS011;9708;53.114;9.388;2023-06-22T03:57:28;4.90;;;3.97;;
19151;SDS011;9708;53.114;9.388;2023-06-22T03:59:56;7.50;;;4.90;;
19151;SDS011;9708;53.114;9.388;2023-06-22T04:02:23;6.57;;;4.40;;
19151;SDS011;9708;53.114;9.388;2023-06-22T04:04:51;9.23;;;5.80;;
19151;SDS011;9708;53.114;9.388;2023-06-22T04:07:18;7.72;;;4.93;;
19151;SDS011;9708;53.114;9.388;2023-06-22T04:09:45;8.63;;;5.05;;
19151;SDS011;9708;53.114;9.388;2023-06-22T04:12:11;8.15;;;4.40;;
19151;SDS011;9708;53.114;9.388;2023-06-22T04:14:38;11.70;;;5.43;;
19151;SDS011;9708;53.114;9.388;2023-06-22T04:17:05;7.90;;;5.03;;
19151;SDS011;9708;53.114;9.388;2023-06-22T04:19:32;8.55;;;5.40;;
19151;SDS011;9708;53.114;9.388;2023-06-22T04:22:00;12.40;;;5.78;;
19151;SDS011;9708;53.114;9.388;2023-06-22T04:24:27;6.35;;;4.43;;
19151;SDS011;9708;53.114;9.388;2023-06-22T04:26:53;8.57;;;5.38;;
19151;SDS011;9708;53.114;9.388;2023-06-22T04:29:20;10.00;;;5.82;;
19151;SDS011;9708;53.114;9.388;2023-06-22T04:31:53;6.68;;;4.68;;
19151;SDS011;9708;53.114;9.388;2023-06-22T04:34:22;10.15;;;5.50;;
19151;SDS011;9708;53.114;9.388;2023-06-22T04:36:51;9.65;;;6.25;;
19151;SDS011;9708;53.114;9.388;2023-06-22T04:39:19;9.18;;;5.43;;
19151;SDS011;9708;53.114;9.388;2023-06-22T04:41:46;10.02;;;6.25;;
19151;SDS011;9708;53.114;9.388;2023-06-22T04:44:14;6.03;;;5.15;;
19151;SDS011;9708;53.114;9.388;2023-06-22T04:46:48;8.90;;;5.47;;
19151;SDS011;9708;53.114;9.388;2023-06-22T04:49:19;7.70;;;4.63;;
19151;SDS011;9708;53.114;9.388;2023-06-22T04:51:47;6.95;;;4.80;;
19151;SDS011;9708;53.114;9.388;2023-06-22T04:54:16;7.85;;;4.75;;
19151;SDS011;9708;53.114;9.388;2023-06-22T04:56:44;8.98;;;5.30;;
19151;SDS011;9708;53.114;9.388;2023-06-22T04:59:11;8.80;;;4.78;;
19151;SDS011;9708;53.114;9.388;2023-06-22T05:01:39;7.55;;;5.38;;
19151;SDS011;9708;53.114;9.388;2023-06-22T05:04:05;8.95;;;5.03;;
19151;SDS011;9708;53.114;9.388;2023-06-22T05:06:32;11.68;;;5.35;;
19151;SDS011;9708;53.114;9.388;2023-06-22T05:08:59;9.02;;;5.07;;
19151;SDS011;9708;53.114;9.388;2023-06-22T05:11:26;6.72;;;5.43;;
19151;SDS011;9708;53.114;9.388;2023-06-22T05:13:55;7.75;;;5.10;;
19151;SDS011;9708;53.114;9.388;2023-06-22T05:16:22;7.43;;;5.00;;
19151;SDS011;9708;53.114;9.388;2023-06-22T05:18:51;7.38;;;5.05;;
19151;SDS011;9708;53.114;9.388;2023-06-22T05:21:21;6.80;;;5.30;;
19151;SDS011;9708;53.114;9.388;2023-06-22T05:23:49;8.65;;;5.10;;
19151;SDS011;9708;53.114;9.388;2023-06-22T05:26:15;10.63;;;5.40;;
19151;SDS011;9708;53.114;9.388;2023-06-22T05:28:42;6.80;;;4.70;;
19151;SDS011;9708;53.114;9.388;2023-06-22T05:31:12;8.05;;;5.47;;
19151;SDS011;9708;53.114;9.388;2023-06-22T05:33:39;7.88;;;4.38;;
19151;SDS011;9708;53.114;9.388;2023-06-22T05:36:07;7.72;;;4.70;;
19151;SDS011;9708;53.114;9.388;2023-06-22T05:38:33;6.25;;;4.43;;
19151;SDS011;9708;53.114;9.388;2023-06-22T05:41:00;7.15;;;4.28;;
19151;SDS011;9708;53.114;9.388;2023-06-22T05:43:27;7.30;;;4.63;;
19151;SDS011;9708;53.114;9.388;2023-06-22T05:45:54;6.78;;;4.43;;
19151;SDS011;9708;53.114;9.388;2023-06-22T05:48:22;5.88;;;4.18;;
19151;SDS011;9708;53.114;9.388;2023-06-22T05:50:49;6.47;;;4.40;;
19151;SDS011;9708;53.114;9.388;2023-06-22T05:53:16;4.82;;;3.88;;
19151;SDS011;9708;53.114;9.388;2023-06-22T05:55:43;6.35;;;4.15;;
19151;SDS011;9708;53.114;9.388;2023-06-22T05:58:10;4.80;;;3.88;;
19151;SDS011;9708;53.114;9.388;2023-06-22T06:00:38;4.80;;;3.55;;
19151;SDS011;9708;53.114;9.388;2023-06-22T06:03:05;5.35;;;3.45;;
19151;SDS011;9708;53.114;9.388;2023-06-22T06:05:34;4.30;;;2.60;;
19151;SDS011;9708;53.114;9.388;2023-06-22T06:08:01;4.25;;;3.38;;
19151;SDS011;9708;53.114;9.388;2023-06-22T06:10:29;7.07;;;4.05;;
19151;SDS011;9708;53.114;9.388;2023-06-22T06:12:57;4.72;;;3.90;;
19151;SDS011;9708;53.114;9.388;2023-06-22T06:15:23;5.78;;;3.10;;
19151;SDS011;9708;53.114;9.388;2023-06-22T06:17:51;4.65;;;3.40;;
19151;SDS011;9708;53.114;9.388;2023-06-22T06:20:19;4.15;;;3.03;;
19151;SDS011;9708;53.114;9.388;2023-06-22T06:22:49;3.75;;;3.00;;
19151;SDS011;9708;53.114;9.388;2023-06-22T06:25:16;7.68;;;3.83;;
19151;SDS011;9708;53.114;9.388;2023-06-22T06:27:45;3.90;;;2.80;;
19151;SDS011;9708;53.114;9.388;2023-06-22T06:30:12;2.88;;;2.22;;
19151;SDS011;9708;53.114;9.388;2023-06-22T06:32:40;3.00;;;2.70;;
19151;SDS011;9708;53.114;9.388;2023-06-22T06:35:09;2.75;;;2.40;;
19151;SDS011;9708;53.114;9.388;2023-06-22T06:37:36;4.93;;;2.97;;
19151;SDS011;9708;53.114;9.388;2023-06-22T06:40:06;2.83;;;2.42;;
19151;SDS011;9708;53.114;9.388;2023-06-22T06:42:35;3.33;;;2.72;;
19151;SDS011;9708;53.114;9.388;2023-06-22T06:45:03;2.80;;;2.22;;
19151;SDS011;9708;53.114;9.388;2023-06-22T06:47:31;4.10;;;2.92;;
19151;SDS011;9708;53.114;9.388;2023-06-22T06:49:58;4.18;;;3.20;;
19151;SDS011;9708;53.114;9.388;2023-06-22T06:52:25;3.28;;;2.60;;
19151;SDS011;9708;53.114;9.388;2023-06-22T06:54:52;3.63;;;3.05;;
19151;SDS011;9708;53.114;9.388;2023-06-22T06:57:20;3.22;;;2.47;;
19151;SDS011;9708;53.114;9.388;2023-06-22T06:59:47;2.63;;;2.40;;
19151;SDS011;9708;53.114;9.388;2023-06-22T07:02:14;3.00;;;2.58;;
19151;SDS011;9708;53.114;9.388;2023-06-22T07:04:41;3.95;;;2.80;;
19151;SDS011;9708;53.114;9.388;2023-06-22T07:07:07;3.58;;;2.80;;
19151;SDS011;9708;53.114;9.388;2023-06-22T07:09:34;3.28;;;2.75;;
19151;SDS011;9708;53.114;9.388;2023-06-22T07:12:01;3.70;;;2.55;;
19151;SDS011;9708;53.114;9.388;2023-06-22T07:14:29;3.78;;;2.60;;
19151;SDS011;9708;53.114;9.388;2023-06-22T07:16:56;4.82;;;2.92;;
19151;SDS011;9708;53.114;9.388;2023-06-22T07:19:26;2.65;;;2.30;;
19151;SDS011;9708;53.114;9.388;2023-06-22T07:21:54;3.65;;;2.97;;
19151;SDS011;9708;53.114;9.388;2023-06-22T07:24:21;2.17;;;1.98;;
19151;SDS011;9708;53.114;9.388;2023-06-22T07:26:49;3.08;;;2.05;;
19151;SDS011;9708;53.114;9.388;2023-06-22T07:29:16;2.50;;;1.83;;
19151;SDS011;9708;53.114;9.388;2023-06-22T07:31:44;2.60;;;2.35;;
19151;SDS011;9708;53.114;9.388;2023-06-22T07:34:11;3.50;;;2.88;;
19151;SDS011;9708;53.114;9.388;2023-06-22T07:36:38;2.90;;;2.13;;
19151;SDS011;9708;53.114;9.388;2023-06-22T07:39:05;3.25;;;2.17;;
19151;SDS011;9708;53.114;9.388;2023-06-22T07:41:32;3.40;;;2.70;;
19151;SDS011;9708;53.114;9.388;2023-06-22T07:43:59;3.80;;;2.55;;
19151;SDS011;9708;53.114;9.388;2023-06-22T07:46:25;4.13;;;2.00;;
19151;SDS011;9708;53.114;9.388;2023-06-22T07:48:56;2.15;;;1.90;;
19151;SDS011;9708;53.114;9.388;2023-06-22T07:51:23;4.30;;;2.53;;
19151;SDS011;9708;53.114;9.388;2023-06-22T07:53:50;2.90;;;1.98;;
19151;SDS011;9708;53.114;9.388;2023-06-22T07:56:17;4.22;;;2.00;;
19151;SDS011;9708;53.114;9.388;2023-06-22T07:58:45;2.08;;;1.88;;
19151;SDS011;9708;53.114;9.388;2023-06-22T08:01:12;2.17;;;1.85;;
19151;SDS011;9708;53.114;9.388;2023-06-22T08:03:39;3.10;;;1.80;;
19151;SDS011;9708;53.114;9.388;2023-06-22T08:06:09;2.50;;;2.30;;
19151;SDS011;9708;53.114;9.388;2023-06-22T08:08:36;2.20;;;2.00;;
19151;SDS011;9708;53.114;9.388;2023-06-22T08:11:02;2.58;;;2.08;;
19151;SDS011;9708;53.114;9.388;2023-06-22T08:13:30;2.80;;;2.10;;
19151;SDS011;9708;53.114;9.388;2023-06-22T08:15:56;2.92;;;2.05;;
19151;SDS011;9708;53.114;9.388;2023-06-22T08:18:23;1.85;;;1.70;;
19151;SDS011;9708;53.114;9.388;2023-06-22T08:20:50;2.13;;;1.80;;
19151;SDS011;9708;53.114;9.388;2023-06-22T08:23:18;6.68;;;4.22;;
19151;SDS011;9708;53.114;9.388;2023-06-22T08:25:45;2.40;;;2.10;;
19151;SDS011;9708;53.114;9.388;2023-06-22T08:28:13;2.15;;;1.90;;
19151;SDS011;9708;53.114;9.388;2023-06-22T08:30:40;3.72;;;2.15;;
19151;SDS011;9708;53.114;9.388;2023-06-22T08:33:06;1.75;;;1.48;;
19151;SDS011;9708;53.114;9.388;2023-06-22T08:35:33;3.15;;;2.10;;
19151;SDS011;9708;53.114;9.388;2023-06-22T08:38:00;2.05;;;1.85;;
19151;SDS011;9708;53.114;9.388;2023-06-22T08:40:28;2.38;;;1.90;;
19151;SDS011;9708;53.114;9.388;2023-06-22T08:42:55;1.73;;;1.58;;
19151;SDS011;9708;53.114;9.388;2023-06-22T08:45:22;2.40;;;1.95;;
19151;SDS011;9708;53.114;9.388;2023-06-22T08:47:49;3.75;;;1.85;;
19151;SDS011;9708;53.114;9.388;2023-06-22T08:50:16;2.35;;;1.98;;
19151;SDS011;9708;53.114;9.388;2023-06-22T08:52:42;2.08;;;1.75;;
19151;SDS011;9708;53.114;9.388;2023-06-22T08:55:10;2.47;;;1.92;;
19151;SDS011;9708;53.114;9.388;2023-06-22T08:57:39;2.67;;;2.28;;
19151;SDS011;9708;53.114;9.388;2023-06-22T09:00:06;2.88;;;2.15;;
19151;SDS011;9708;53.114;9.388;2023-06-22T09:02:45;2.55;;;2.22;;
19151;SDS011;9708;53.114;9.388;2023-06-22T09:05:12;3.53;;;2.20;;
19151;SDS011;9708;53.114;9.388;2023-06-22T09:07:40;1.92;;;1.70;;
19151;SDS011;9708;53.114;9.388;2023-06-22T09:10:07;4.47;;;2.22;;
19151;SDS011;9708;53.114;9.388;2023-06-22T09:12:34;2.42;;;2.20;;
19151;SDS011;9708;53.114;9.388;2023-06-22T09:15:04;2.08;;;1.63;;
19151;SDS011;9708;53.114;9.388;2023-06-22T09:17:32;2.53;;;1.95;;
19151;SDS011;9708;53.114;9.388;2023-06-22T09:20:00;2.45;;;2.10;;
19151;SDS011;9708;53.114;9.388;2023-06-22T09:22:30;1.80;;;1.60;;
19151;SDS011;9708;53.114;9.388;2023-06-22T09:24:57;1.63;;;1.52;;
19151;SDS011;9708;53.114;9.388;2023-06-22T09:27:24;1.80;;;1.70;;
19151;SDS011;9708;53.114;9.388;2023-06-22T09:29:51;2.63;;;1.75;;
19151;SDS011;9708;53.114;9.388;2023-06-22T09:32:19;2.97;;;1.85;;
19151;SDS011;9708;53.114;9.388;2023-06-22T09:34:46;1.50;;;1.40;;
19151;SDS011;9708;53.114;9.388;2023-06-22T09:37:13;1.92;;;1.75;;
19151;SDS011;9708;53.114;9.388;2023-06-22T09:39:40;2.47;;;1.70;;
19151;SDS011;9708;53.114;9.388;2023-06-22T09:42:07;1.95;;;1.40;;
19151;SDS011;9708;53.114;9.388;2023-06-22T09:44:34;1.88;;;1.60;;
19151;SDS011;9708;53.114;9.388;2023-06-22T09:47:01;2.45;;;1.77;;
19151;SDS011;9708;53.114;9.388;2023-06-22T09:49:29;1.48;;;1.38;;
19151;SDS011;9708;53.114;9.388;2023-06-22T09:51:57;2.58;;;1.73;;
19151;SDS011;9708;53.114;9.388;2023-06-22T09:54:24;2.10;;;1.90;;
19151;SDS011;9708;53.114;9.388;2023-06-22T09:56:50;2.08;;;1.77;;
19151;SDS011;9708;53.114;9.388;2023-06-22T09:59:17;2.28;;;2.00;;
19151;SDS011;9708;53.114;9.388;2023-06-22T10:01:44;2.15;;;1.95;;
19151;SDS011;9708;53.114;9.388;2023-06-22T10:04:11;3.38;;;1.98;;
19151;SDS011;9708;53.114;9.388;2023-06-22T10:06:39;2.17;;;1.70;;
19151;SDS011;9708;53.114;9.388;2023-06-22T10:09:06;4.07;;;1.83;;
19151;SDS011;9708;53.114;9.388;2023-06-22T10:11:35;1.85;;;1.55;;
19151;SDS011;9708;53.114;9.388;2023-06-22T10:14:02;2.10;;;1.63;;
19151;SDS011;9708;53.114;9.388;2023-06-22T10:16:32;3.47;;;1.88;;
19151;SDS011;9708;53.114;9.388;2023-06-22T10:19:00;1.70;;;1.55;;
19151;SDS011;9708;53.114;9.388;2023-06-22T10:21:27;1.90;;;1.80;;
19151;SDS011;9708;53.114;9.388;2023-06-22T10:23:55;2.80;;;2.08;;
19151;SDS011;9708;53.114;9.388;2023-06-22T10:26:22;2.85;;;2.47;;
19151;SDS011;9708;53.114;9.388;2023-06-22T10:28:49;2.22;;;1.98;;
19151;SDS011;9708;53.114;9.388;2023-06-22T10:31:16;2.28;;;2.08;;
19151;SDS011;9708;53.114;9.388;2023-06-22T10:33:43;2.20;;;2.00;;
19151;SDS011;9708;53.114;9.388;2023-06-22T10:36:10;2.22;;;2.00;;
19151;SDS011;9708;53.114;9.388;2023-06-22T10:38:37;2.78;;;2.17;;
19151;SDS011;9708;53.114;9.388;2023-06-22T10:41:05;3.72;;;2.30;;
19151;SDS011;9708;53.114;9.388;2023-06-22T10:43:32;2.33;;;2.13;;
19151;SDS011;9708;53.114;9.388;2023-06-22T10:45:58;2.67;;;2.40;;
19151;SDS011;9708;53.114;9.388;2023-06-22T10:48:25;2.30;;;2.00;;
19151;SDS011;9708;53.114;9.388;2023-06-22T10:50:52;3.70;;;2.45;;
19151;SDS011;9708;53.114;9.388;2023-06-22T10:53:19;1.80;;;1.70;;
19151;SDS011;9708;53.114;9.388;2023-06-22T10:55:46;2.92;;;2.15;;
19151;SDS011;9708;53.114;9.388;2023-06-22T10:58:14;2.78;;;2.55;;
19151;SDS011;9708;53.114;9.388;2023-06-22T11:00:41;2.45;;;2.25;;
19151;SDS011;9708;53.114;9.388;2023-06-22T11:03:07;2.30;;;2.10;;
19151;SDS011;9708;53.114;9.388;2023-06-22T11:05:34;2.83;;;2.63;;
19151;SDS011;9708;53.114;9.388;2023-06-22T11:08:01;2.85;;;2.08;;
19151;SDS011;9708;53.114;9.388;2023-06-22T11:10:28;3.83;;;3.13;;
19151;SDS011;9708;53.114;9.388;2023-06-22T11:12:54;3.80;;;2.70;;
19151;SDS011;9708;53.114;9.388;2023-06-22T11:15:24;2.67;;;2.35;;
19151;SDS011;9708;53.114;9.388;2023-06-22T11:17:51;2.85;;;2.30;;
19151;SDS011;9708;53.114;9.388;2023-06-22T11:20:18;3.40;;;2.47;;
19151;SDS011;9708;53.114;9.388;2023-06-22T11:22:44;3.25;;;2.30;;
19151;SDS011;9708;53.114;9.388;2023-06-22T11:25:11;2.67;;;2.22;;
19151;SDS011;9708;53.114;9.388;2023-06-22T11:27:38;3.67;;;2.65;;
19151;SDS011;9708;53.114;9.388;2023-06-22T11:30:06;3.05;;;2.80;;
19151;SDS011;9708;53.114;9.388;2023-06-22T11:32:35;2.92;;;2.47;;
19151;SDS011;9708;53.114;9.388;2023-06-22T11:35:01;3.35;;;2.60;;
19151;SDS011;9708;53.114;9.388;2023-06-22T11:37:28;3.28;;;2.45;;
19151;SDS011;9708;53.114;9.388;2023-06-22T11:39:55;4.57;;;2.80;;
19151;SDS011;9708;53.114;9.388;2023-06-22T11:42:23;2.92;;;2.40;;
19151;SDS011;9708;53.114;9.388;2023-06-22T11:44:50;4.70;;;2.75;;
19151;SDS011;9708;53.114;9.388;2023-06-22T11:47:17;3.20;;;2.90;;
19151;SDS011;9708;53.114;9.388;2023-06-22T11:49:45;3.17;;;2.88;;
19151;SDS011;9708;53.114;9.388;2023-06-22T11:52:12;5.28;;;2.70;;
19151;SDS011;9708;53.114;9.388;2023-06-22T11:54:39;3.63;;;2.80;;
19151;SDS011;9708;53.114;9.388;2023-06-22T11:57:06;3.80;;;2.97;;
19151;SDS011;9708;53.114;9.388;2023-06-22T11:59:33;3.83;;;2.95;;
19151;SDS011;9708;53.114;9.388;2023-06-22T12:02:00;3.05;;;2.75;;
19151;SDS011;9708;53.114;9.388;2023-06-22T12:04:26;3.78;;;2.88;;
19151;SDS011;9708;53.114;9.388;2023-06-22T12:06:54;3.92;;;3.20;;
19151;SDS011;9708;53.114;9.388;2023-06-22T12:09:21;3.15;;;2.78;;
19151;SDS011;9708;53.114;9.388;2023-06-22T12:11:48;3.33;;;2.85;;
19151;SDS011;9708;53.114;9.388;2023-06-22T12:14:15;3.28;;;2.65;;
19151;SDS011;9708;53.114;9.388;2023-06-22T12:16:41;4.63;;;3.05;;
19151;SDS011;9708;53.114;9.388;2023-06-22T12:19:09;4.15;;;3.30;;
19151;SDS011;9708;53.114;9.388;2023-06-22T12:21:37;3.15;;;2.85;;
19151;SDS011;9708;53.114;9.388;2023-06-22T12:24:05;2.88;;;2.25;;
19151;SDS011;9708;53.114;9.388;2023-06-22T12:26:32;3.97;;;3.08;;
19151;SDS011;9708;53.114;9.388;2023-06-22T12:28:59;4.32;;;3.10;;
19151;SDS011;9708;53.114;9.388;2023-06-22T12:31:26;3.88;;;3.05;;
19151;SDS011;9708;53.114;9.388;2023-06-22T12:33:52;3.53;;;2.63;;
19151;SDS011;9708;53.114;9.388;2023-06-22T12:36:20;4.28;;;3.17;;
19151;SDS011;9708;53.114;9.388;2023-06-22T12:38:47;3.13;;;2.60;;
19151;SDS011;9708;53.114;9.388;2023-06-22T12:41:15;3.72;;;3.03;;
19151;SDS011;9708;53.114;9.388;2023-06-22T12:43:42;4.60;;;3.22;;
19151;SDS011;9708;53.114;9.388;2023-06-22T12:46:08;3.65;;;2.67;;
19151;SDS011;9708;53.114;9.388;2023-06-22T12:48:35;5.47;;;2.80;;
19151;SDS011;9708;53.114;9.388;2023-06-22T12:51:06;3.45;;;3.15;;
19151;SDS011;9708;53.114;9.388;2023-06-22T12:53:33;5.65;;;2.92;;
19151;SDS011;9708;53.114;9.388;2023-06-22T12:56:00;3.20;;;2.55;;
19151;SDS011;9708;53.114;9.388;2023-06-22T12:58:28;3.08;;;2.75;;
19151;SDS011;9708;53.114;9.388;2023-06-22T13:00:55;2.92;;;2.40;;
19151;SDS011;9708;53.114;9.388;2023-06-22T13:03:21;2.50;;;2.28;;
19151;SDS011;9708;53.114;9.388;2023-06-22T13:05:50;3.70;;;3.28;;
19151;SDS011;9708;53.114;9.388;2023-06-22T13:08:16;3.75;;;2.67;;
19151;SDS011;9708;53.114;9.388;2023-06-22T13:10:43;3.60;;;2.78;;
19151;SDS011;9708;53.114;9.388;2023-06-22T13:13:10;4.20;;;2.80;;
19151;SDS011;9708;53.114;9.388;2023-06-22T13:15:38;4.70;;;3.20;;
19151;SDS011;9708;53.114;9.388;2023-06-22T13:18:05;3.30;;;3.00;;
19151;SDS011;9708;53.114;9.388;2023-06-22T13:20:31;4.50;;;2.80;;
19151;SDS011;9708;53.114;9.388;2023-06-22T13:23:00;3.05;;;2.63;;
19151;SDS011;9708;53.114;9.388;2023-06-22T13:25:26;3.13;;;2.70;;
19151;SDS011;9708;53.114;9.388;2023-06-22T13:27:53;2.90;;;2.53;;
19151;SDS011;9708;53.114;9.388;2023-06-22T13:30:20;2.92;;;2.63;;
19151;SDS011;9708;53.114;9.388;2023-06-22T13:32:48;4.85;;;3.22;;
19151;SDS011;9708;53.114;9.388;2023-06-22T13:35:15;3.38;;;2.90;;
19151;SDS011;9708;53.114;9.388;2023-06-22T13:37:43;3.53;;;2.63;;
19151;SDS011;9708;53.114;9.388;2023-06-22T13:40:10;4.88;;;2.80;;
19151;SDS011;9708;53.114;9.388;2023-06-22T13:42:37;4.20;;;2.88;;
19151;SDS011;9708;53.114;9.388;2023-06-22T13:45:04;3.40;;;2.58;;
19151;SDS011;9708;53.114;9.388;2023-06-22T13:47:32;3.55;;;2.65;;
19151;SDS011;9708;53.114;9.388;2023-06-22T13:50:00;2.85;;;2.55;;
19151;SDS011;9708;53.114;9.388;2023-06-22T13:52:27;3.00;;;2.35;;
19151;SDS011;9708;53.114;9.388;2023-06-22T13:54:54;3.25;;;2.50;;
19151;SDS011;9708;53.114;9.388;2023-06-22T13:57:21;4.07;;;3.15;;
19151;SDS011;9708;53.114;9.388;2023-06-22T13:59:47;3.05;;;2.42;;
19151;SDS011;9708;53.114;9.388;2023-06-22T14:02:14;3.40;;;3.10;;
19151;SDS011;9708;53.114;9.388;2023-06-22T14:04:41;3.50;;;2.47;;
19151;SDS011;9708;53.114;9.388;2023-06-22T14:07:09;2.95;;;2.65;;
19151;SDS011;9708;53.114;9.388;2023-06-22T14:09:36;3.80;;;3.00;;
19151;SDS011;9708;53.114;9.388;2023-06-22T14:12:03;3.97;;;2.80;;
19151;SDS011;9708;53.114;9.388;2023-06-22T14:14:31;6.82;;;3.33;;
19151;SDS011;9708;53.114;9.388;2023-06-22T14:16:57;4.07;;;2.88;;
19151;SDS011;9708;53.114;9.388;2023-06-22T14:19:24;4.78;;;3.40;;
19151;SDS011;9708;53.114;9.388;2023-06-22T14:21:51;3.20;;;2.88;;
19151;SDS011;9708;53.114;9.388;2023-06-22T14:24:19;3.92;;;3.50;;
19151;SDS011;9708;53.114;9.388;2023-06-22T14:26:46;4.25;;;3.58;;
19151;SDS011;9708;53.114;9.388;2023-06-22T14:29:13;3.55;;;2.80;;
19151;SDS011;9708;53.114;9.388;2023-06-22T14:31:39;3.90;;;3.28;;
19151;SDS011;9708;53.114;9.388;2023-06-22T14:34:06;6.18;;;3.70;;
19151;SDS011;9708;53.114;9.388;2023-06-22T14:36:33;4.82;;;3.38;;
19151;SDS011;9708;53.114;9.388;2023-06-22T14:39:00;5.32;;;3.35;;
19151;SDS011;9708;53.114;9.388;2023-06-22T14:41:28;23.80;;;4.63;;
19151;SDS011;9708;53.114;9.388;2023-06-22T14:43:55;4.28;;;3.40;;
19151;SDS011;9708;53.114;9.388;2023-06-22T14:46:22;3.97;;;3.67;;
19151;SDS011;9708;53.114;9.388;2023-06-22T14:48:49;4.30;;;3.78;;
19151;SDS011;9708;53.114;9.388;2023-06-22T14:51:16;5.65;;;3.60;;
19151;SDS011;9708;53.114;9.388;2023-06-22T14:53:43;3.92;;;3.15;;
19151;SDS011;9708;53.114;9.388;2023-06-22T14:56:11;4.03;;;3.08;;
19151;SDS011;9708;53.114;9.388;2023-06-22T14:58:41;4.25;;;3.83;;
19151;SDS011;9708;53.114;9.388;2023-06-22T15:01:10;4.53;;;3.42;;